sensor_id;sensor_type;location;lat;lon;timestamp;pressure;altitude;pressure_sealevel;temperature;humidity
72685;BME280;61365;52.162;4.500;2023-04-23T00:01:05;100673.69;;;8.41;89.78
72685;BME280;61365;52.162;4.500;2023-04-23T00:03:33;100665.00;;;8.45;90.30
72685;BME280;61365;52.162;4.500;2023-04-23T00:06:06;100671.09;;;8.44;90.24
72685;BME280;61365;52.162;4.500;2023-04-23T00:08:34;100670.28;;;8.48;89.80
72685;BME280;61365;52.162;4.500;2023-04-23T00:11:04;100671.09;;;8.44;90.46
72685;BME280;61365;52.162;4.500;2023-04-23T00:13:31;100666.75;;;8.43;90.53
72685;BME280;61365;52.162;4.500;2023-04-23T00:15:57;100656.25;;;8.35;91.00
72685;BME280;61365;52.162;4.500;2023-04-23T00:18:24;100660.63;;;8.36;91.12
72685;BME280;61365;52.162;4.500;2023-04-23T00:20:50;100659.75;;;8.42;90.60
72685;BME280;61365;52.162;4.500;2023-04-23T00:23:16;100658.91;;;8.41;90.91
72685;BME280;61365;52.162;4.500;2023-04-23T00:25:43;100651.00;;;8.34;90.70
72685;BME280;61365;52.162;4.500;2023-04-23T00:28:09;100653.66;;;8.40;91.13
72685;BME280;61365;52.162;4.500;2023-04-23T00:30:35;100650.13;;;8.35;91.68
72685;BME280;61365;52.162;4.500;2023-04-23T00:33:01;100647.50;;;8.35;91.72
72685;BME280;61365;52.162;4.500;2023-04-23T00:35:27;100647.56;;;8.39;91.33
72685;BME280;61365;52.162;4.500;2023-04-23T00:37:53;100640.56;;;8.37;91.90
72685;BME280;61365;52.162;4.500;2023-04-23T00:40:20;100637.94;;;8.37;92.29
72685;BME280;61365;52.162;4.500;2023-04-23T00:42:46;100638.94;;;8.51;91.43
72685;BME280;61365;52.162;4.500;2023-04-23T00:45:13;100624.97;;;8.52;91.49
72685;BME280;61365;52.162;4.500;2023-04-23T00:47:40;100622.38;;;8.59;91.75
72685;BME280;61365;52.162;4.500;2023-04-23T00:50:08;100613.63;;;8.52;91.95
72685;BME280;61365;52.162;4.500;2023-04-23T00:52:34;100618.00;;;8.56;91.92
72685;BME280;61365;52.162;4.500;2023-04-23T00:55:01;100603.19;;;8.60;91.74
72685;BME280;61365;52.162;4.500;2023-04-23T00:57:27;100617.13;;;8.54;91.62
72685;BME280;61365;52.162;4.500;2023-04-23T00:59:53;100617.13;;;8.52;92.14
72685;BME280;61365;52.162;4.500;2023-04-23T01:02:21;100617.06;;;8.45;92.60
72685;BME280;61365;52.162;4.500;2023-04-23T01:04:48;100610.97;;;8.44;92.76
72685;BME280;61365;52.162;4.500;2023-04-23T01:07:19;100613.66;;;8.55;92.48
72685;BME280;61365;52.162;4.500;2023-04-23T01:09:47;100609.28;;;8.49;92.29
72685;BME280;61365;52.162;4.500;2023-04-23T01:12:15;100610.16;;;8.53;92.44
72685;BME280;61365;52.162;4.500;2023-04-23T01:14:42;100605.81;;;8.56;92.17
72685;BME280;61365;52.162;4.500;2023-04-23T01:17:08;100603.19;;;8.50;92.59
72685;BME280;61365;52.162;4.500;2023-04-23T01:19:37;100597.03;;;8.45;92.82
72685;BME280;61365;52.162;4.500;2023-04-23T01:22:08;100594.41;;;8.45;93.03
72685;BME280;61365;52.162;4.500;2023-04-23T01:24:35;100597.06;;;8.48;93.16
72685;BME280;61365;52.162;4.500;2023-04-23T01:27:02;100596.97;;;8.34;93.61
72685;BME280;61365;52.162;4.500;2023-04-23T01:29:28;100592.66;;;8.43;93.01
72685;BME280;61365;52.162;4.500;2023-04-23T01:31:56;100589.13;;;8.39;93.76
72685;BME280;61365;52.162;4.500;2023-04-23T01:34:22;100590.91;;;8.43;93.87
72685;BME280;61365;52.162;4.500;2023-04-23T01:36:48;100590.06;;;8.47;93.55
72685;BME280;61365;52.162;4.500;2023-04-23T01:39:16;100588.28;;;8.40;93.52
72685;BME280;61365;52.162;4.500;2023-04-23T01:41:43;100598.81;;;8.49;93.49
72685;BME280;61365;52.162;4.500;2023-04-23T01:44:09;100577.78;;;8.34;94.49
72685;BME280;61365;52.162;4.500;2023-04-23T01:46:35;100579.47;;;8.21;95.94
72685;BME280;61365;52.162;4.500;2023-04-23T01:49:02;100579.41;;;8.05;97.43
72685;BME280;61365;52.162;4.500;2023-04-23T01:51:29;100574.25;;;8.15;97.30
72685;BME280;61365;52.162;4.500;2023-04-23T01:53:55;100569.94;;;8.24;97.16
72685;BME280;61365;52.162;4.500;2023-04-23T01:56:25;100576.88;;;8.19;97.45
72685;BME280;61365;52.162;4.500;2023-04-23T01:58:53;100581.25;;;8.26;97.35
72685;BME280;61365;52.162;4.500;2023-04-23T02:01:19;100583.03;;;8.32;97.23
72685;BME280;61365;52.162;4.500;2023-04-23T02:03:45;100586.47;;;8.25;96.99
72685;BME280;61365;52.162;4.500;2023-04-23T02:06:14;100583.03;;;8.32;97.36
72685;BME280;61365;52.162;4.500;2023-04-23T02:08:40;100581.25;;;8.23;97.58
72685;BME280;61365;52.162;4.500;2023-04-23T02:11:07;100574.31;;;8.29;97.44
72685;BME280;61365;52.162;4.500;2023-04-23T02:13:33;100570.78;;;8.23;97.49
72685;BME280;61365;52.162;4.500;2023-04-23T02:15:59;100570.78;;;8.23;97.33
72685;BME280;61365;52.162;4.500;2023-04-23T02:18:25;100573.44;;;8.31;96.72
72685;BME280;61365;52.162;4.500;2023-04-23T02:20:53;100571.69;;;8.35;96.69
72685;BME280;61365;52.162;4.500;2023-04-23T02:23:19;100566.47;;;8.36;96.61
72685;BME280;61365;52.162;4.500;2023-04-23T02:25:45;100564.72;;;8.32;96.73
72685;BME280;61365;52.162;4.500;2023-04-23T02:28:11;100559.50;;;8.37;96.89
72685;BME280;61365;52.162;4.500;2023-04-23T02:30:38;100567.34;;;8.40;96.79
72685;BME280;61365;52.162;4.500;2023-04-23T02:33:10;100566.47;;;8.36;96.83
72685;BME280;61365;52.162;4.500;2023-04-23T02:35:36;100575.19;;;8.40;96.68
72685;BME280;61365;52.162;4.500;2023-04-23T02:38:03;100568.25;;;8.44;96.49
72685;BME280;61365;52.162;4.500;2023-04-23T02:40:29;100563.88;;;8.46;96.51
72685;BME280;61365;52.162;4.500;2023-04-23T02:42:56;100568.31;;;8.48;96.54
72685;BME280;61365;52.162;4.500;2023-04-23T02:45:22;100562.16;;;8.48;96.25
72685;BME280;61365;52.162;4.500;2023-04-23T02:47:48;100565.63;;;8.47;95.81
72685;BME280;61365;52.162;4.500;2023-04-23T02:50:14;100563.09;;;8.51;95.19
72685;BME280;61365;52.162;4.500;2023-04-23T02:52:41;100563.91;;;8.47;95.77
72685;BME280;61365;52.162;4.500;2023-04-23T02:55:07;100566.56;;;8.50;95.70
72685;BME280;61365;52.162;4.500;2023-04-23T02:57:34;100570.91;;;8.48;95.61
72685;BME280;61365;52.162;4.500;2023-04-23T03:00:01;100563.94;;;8.50;95.58
72685;BME280;61365;52.162;4.500;2023-04-23T03:02:31;100562.16;;;8.46;95.51
72685;BME280;61365;52.162;4.500;2023-04-23T03:04:57;100556.91;;;8.48;95.58
72685;BME280;61365;52.162;4.500;2023-04-23T03:07:23;100554.31;;;8.48;95.74
72685;BME280;61365;52.162;4.500;2023-04-23T03:09:49;100551.69;;;8.43;95.54
72685;BME280;61365;52.162;4.500;2023-04-23T03:12:15;100554.31;;;8.45;95.49
72685;BME280;61365;52.162;4.500;2023-04-23T03:14:42;100548.19;;;8.44;95.56
72685;BME280;61365;52.162;4.500;2023-04-23T03:17:09;100548.19;;;8.44;95.53
72685;BME280;61365;52.162;4.500;2023-04-23T03:19:35;100549.94;;;8.42;95.45
72685;BME280;61365;52.162;4.500;2023-04-23T03:22:01;100549.97;;;8.44;95.61
72685;BME280;61365;52.162;4.500;2023-04-23T03:24:31;100543.84;;;8.41;95.20
72685;BME280;61365;52.162;4.500;2023-04-23T03:26:58;100539.53;;;8.48;95.25
72685;BME280;61365;52.162;4.500;2023-04-23T03:29:24;100536.91;;;8.50;95.01
72685;BME280;61365;52.162;4.500;2023-04-23T03:31:51;100544.78;;;8.51;95.14
72685;BME280;61365;52.162;4.500;2023-04-23T03:34:17;100546.53;;;8.55;95.12
72685;BME280;61365;52.162;4.500;2023-04-23T03:36:43;100545.66;;;8.63;94.71
72685;BME280;61365;52.162;4.500;2023-04-23T03:39:11;100550.91;;;8.74;94.69
72685;BME280;61365;52.162;4.500;2023-04-23T03:41:37;100550.91;;;8.72;94.15
72685;BME280;61365;52.162;4.500;2023-04-23T03:44:03;100544.81;;;8.73;93.75
72685;BME280;61365;52.162;4.500;2023-04-23T03:46:29;100542.19;;;8.71;94.11
72685;BME280;61365;52.162;4.500;2023-04-23T03:48:55;100541.34;;;8.77;93.82
72685;BME280;61365;52.162;4.500;2023-04-23T03:51:21;100539.59;;;8.78;93.93
72685;BME280;61365;52.162;4.500;2023-04-23T03:53:47;100542.22;;;8.81;93.47
72685;BME280;61365;52.162;4.500;2023-04-23T03:56:14;100531.75;;;8.87;93.39
72685;BME280;61365;52.162;4.500;2023-04-23T03:58:40;100530.00;;;8.91;93.36
72685;BME280;61365;52.162;4.500;2023-04-23T04:01:06;100530.91;;;8.91;93.53
72685;BME280;61365;52.162;4.500;2023-04-23T04:03:32;100532.63;;;8.98;93.70
72685;BME280;61365;52.162;4.500;2023-04-23T04:05:58;100536.13;;;9.02;93.14
72685;BME280;61365;52.162;4.500;2023-04-23T04:08:24;100536.13;;;9.02;92.97
72685;BME280;61365;52.162;4.500;2023-04-23T04:10:51;100539.59;;;9.02;93.17
72685;BME280;61365;52.162;4.500;2023-04-23T04:13:17;100531.75;;;9.06;93.34
72685;BME280;61365;52.162;4.500;2023-04-23T04:15:44;100528.25;;;9.11;93.14
72685;BME280;61365;52.162;4.500;2023-04-23T04:18:10;100532.66;;;9.20;92.68
72685;BME280;61365;52.162;4.500;2023-04-23T04:20:36;100532.63;;;9.22;92.96
72685;BME280;61365;52.162;4.500;2023-04-23T04:23:02;100532.63;;;9.19;92.82
72685;BME280;61365;52.162;4.500;2023-04-23T04:25:29;100535.25;;;9.15;93.13
72685;BME280;61365;52.162;4.500;2023-04-23T04:27:55;100532.63;;;9.23;93.26
72685;BME280;61365;52.162;4.500;2023-04-23T04:30:23;100532.66;;;9.25;92.92
72685;BME280;61365;52.162;4.500;2023-04-23T04:32:49;100525.66;;;9.16;92.96
72685;BME280;61365;52.162;4.500;2023-04-23T04:35:15;100526.53;;;9.27;93.24
72685;BME280;61365;52.162;4.500;2023-04-23T04:37:41;100530.03;;;9.28;93.06
72685;BME280;61365;52.162;4.500;2023-04-23T04:40:09;100537.88;;;9.28;93.10
72685;BME280;61365;52.162;4.500;2023-04-23T04:42:36;100527.38;;;9.37;92.85
72685;BME280;61365;52.162;4.500;2023-04-23T04:45:04;100527.41;;;9.39;92.35
72685;BME280;61365;52.162;4.500;2023-04-23T04:47:31;100526.50;;;9.38;92.41
72685;BME280;61365;52.162;4.500;2023-04-23T04:49:57;100523.03;;;9.41;92.55
72685;BME280;61365;52.162;4.500;2023-04-23T04:52:25;100525.66;;;9.41;92.60
72685;BME280;61365;52.162;4.500;2023-04-23T04:54:51;100523.91;;;9.40;92.39
72685;BME280;61365;52.162;4.500;2023-04-23T04:57:17;100516.03;;;9.41;92.38
72685;BME280;61365;52.162;4.500;2023-04-23T04:59:44;100523.88;;;9.49;92.52
72685;BME280;61365;52.162;4.500;2023-04-23T05:02:11;100525.63;;;9.55;92.58
72685;BME280;61365;52.162;4.500;2023-04-23T05:04:37;100528.22;;;9.56;92.19
72685;BME280;61365;52.162;4.500;2023-04-23T05:07:03;100528.25;;;9.55;91.84
72685;BME280;61365;52.162;4.500;2023-04-23T05:09:29;100530.00;;;9.53;92.04
72685;BME280;61365;52.162;4.500;2023-04-23T05:11:55;100537.84;;;9.67;91.92
72685;BME280;61365;52.162;4.500;2023-04-23T05:14:22;100540.38;;;9.84;91.50
72685;BME280;61365;52.162;4.500;2023-04-23T05:16:51;100541.22;;;10.07;90.76
72685;BME280;61365;52.162;4.500;2023-04-23T05:19:17;100541.94;;;10.37;89.42
72685;BME280;61365;52.162;4.500;2023-04-23T05:21:43;100532.53;;;9.85;90.00
72685;BME280;61365;52.162;4.500;2023-04-23T05:24:09;100532.53;;;9.95;90.28
72685;BME280;61365;52.162;4.500;2023-04-23T05:26:35;100526.41;;;9.93;89.78
72685;BME280;61365;52.162;4.500;2023-04-23T05:29:01;100532.53;;;9.84;90.15
72685;BME280;61365;52.162;4.500;2023-04-23T05:31:28;100531.59;;;10.05;90.18
72685;BME280;61365;52.162;4.500;2023-04-23T05:33:55;100532.38;;;10.26;88.95
72685;BME280;61365;52.162;4.500;2023-04-23T05:36:21;100528.00;;;10.25;88.11
72685;BME280;61365;52.162;4.500;2023-04-23T05:38:47;100523.44;;;10.67;87.29
72685;BME280;61365;52.162;4.500;2023-04-23T05:41:13;100526.84;;;10.83;86.80
72685;BME280;61365;52.162;4.500;2023-04-23T05:43:40;100523.19;;;11.03;85.20
72685;BME280;61365;52.162;4.500;2023-04-23T05:46:06;100524.72;;;11.29;83.93
72685;BME280;61365;52.162;4.500;2023-04-23T05:48:33;100514.75;;;11.63;83.27
72685;BME280;61365;52.162;4.500;2023-04-23T05:50:59;100507.13;;;11.38;82.78
72685;BME280;61365;52.162;4.500;2023-04-23T05:53:26;100511.22;;;11.67;81.68
72685;BME280;61365;52.162;4.500;2023-04-23T05:55:53;100519.13;;;11.63;82.17
72685;BME280;61365;52.162;4.500;2023-04-23T05:58:19;100523.19;;;11.93;80.57
72685;BME280;61365;52.162;4.500;2023-04-23T06:00:45;100511.38;;;12.88;78.73
72685;BME280;61365;52.162;4.500;2023-04-23T06:03:11;100517.41;;;12.98;75.76
72685;BME280;61365;52.162;4.500;2023-04-23T06:05:37;100515.91;;;12.80;76.56
72685;BME280;61365;52.162;4.500;2023-04-23T06:08:03;100518.31;;;12.95;76.36
72685;BME280;61365;52.162;4.500;2023-04-23T06:10:29;100514.75;;;12.98;76.24
72685;BME280;61365;52.162;4.500;2023-04-23T06:12:56;100517.13;;;13.65;74.40
72685;BME280;61365;52.162;4.500;2023-04-23T06:15:22;100509.53;;;13.93;72.28
72685;BME280;61365;52.162;4.500;2023-04-23T06:17:51;100504.84;;;13.64;73.13
72685;BME280;61365;52.162;4.500;2023-04-23T06:20:19;100509.44;;;14.39;71.87
72685;BME280;61365;52.162;4.500;2023-04-23T06:22:45;100504.22;;;14.37;71.11
72685;BME280;61365;52.162;4.500;2023-04-23T06:25:11;100491.22;;;14.28;71.35
72685;BME280;61365;52.162;4.500;2023-04-23T06:27:37;100496.06;;;14.48;70.89
72685;BME280;61365;52.162;4.500;2023-04-23T06:30:03;100494.09;;;14.17;70.51
72685;BME280;61365;52.162;4.500;2023-04-23T06:32:30;100501.09;;;14.18;70.35
72685;BME280;61365;52.162;4.500;2023-04-23T06:34:56;100492.47;;;14.51;69.97
72685;BME280;61365;52.162;4.500;2023-04-23T06:37:22;100492.03;;;14.71;69.34
72685;BME280;61365;52.162;4.500;2023-04-23T06:39:48;100483.94;;;15.13;68.50
72685;BME280;61365;52.162;4.500;2023-04-23T06:42:15;100475.03;;;15.18;68.52
72685;BME280;61365;52.162;4.500;2023-04-23T06:44:41;100484.72;;;15.19;68.38
72685;BME280;61365;52.162;4.500;2023-04-23T06:47:07;100483.94;;;15.15;68.72
72685;BME280;61365;52.162;4.500;2023-04-23T06:49:33;100484.38;;;15.64;66.36
72685;BME280;61365;52.162;4.500;2023-04-23T06:52:01;100486.38;;;15.56;67.09
72685;BME280;61365;52.162;4.500;2023-04-23T06:54:27;100487.75;;;15.69;65.79
72685;BME280;61365;52.162;4.500;2023-04-23T06:56:53;100482.78;;;16.21;64.59
72685;BME280;61365;52.162;4.500;2023-04-23T06:59:21;100485.13;;;16.31;64.70
72685;BME280;61365;52.162;4.500;2023-04-23T07:01:47;100476.09;;;16.38;63.41
72685;BME280;61365;52.162;4.500;2023-04-23T07:04:14;100480.19;;;16.48;63.04
72685;BME280;61365;52.162;4.500;2023-04-23T07:06:40;100479.72;;;16.35;64.24
72685;BME280;61365;52.162;4.500;2023-04-23T07:09:06;100472.78;;;16.87;62.05
72685;BME280;61365;52.162;4.500;2023-04-23T07:11:32;100476.13;;;16.65;63.03
72685;BME280;61365;52.162;4.500;2023-04-23T07:14:01;100469.47;;;16.25;63.72
72685;BME280;61365;52.162;4.500;2023-04-23T07:16:28;100467.16;;;16.41;63.78
72685;BME280;61365;52.162;4.500;2023-04-23T07:18:58;100465.88;;;16.54;63.54
72685;BME280;61365;52.162;4.500;2023-04-23T07:21:26;100469.47;;;16.80;63.58
72685;BME280;61365;52.162;4.500;2023-04-23T07:23:56;100466.88;;;16.51;63.88
72685;BME280;61365;52.162;4.500;2023-04-23T07:26:24;100467.56;;;16.84;63.04
72685;BME280;61365;52.162;4.500;2023-04-23T07:28:52;100468.75;;;17.29;62.16
72685;BME280;61365;52.162;4.500;2023-04-23T07:31:18;100469.50;;;17.58;61.19
72685;BME280;61365;52.162;4.500;2023-04-23T07:33:45;100464.69;;;17.18;61.52
72685;BME280;61365;52.162;4.500;2023-04-23T07:36:11;100461.50;;;17.34;62.20
72685;BME280;61365;52.162;4.500;2023-04-23T07:38:37;100457.53;;;17.20;61.64
72685;BME280;61365;52.162;4.500;2023-04-23T07:41:03;100461.53;;;17.32;62.50
72685;BME280;61365;52.162;4.500;2023-04-23T07:43:29;100455.53;;;18.02;59.80
72685;BME280;61365;52.162;4.500;2023-04-23T07:45:56;100450.88;;;17.59;60.34
72685;BME280;61365;52.162;4.500;2023-04-23T07:48:22;100448.06;;;17.88;59.43
72685;BME280;61365;52.162;4.500;2023-04-23T07:50:48;100442.66;;;18.37;59.15
72685;BME280;61365;52.162;4.500;2023-04-23T07:53:14;100440.59;;;17.99;58.97
72685;BME280;61365;52.162;4.500;2023-04-23T07:55:40;100447.97;;;17.91;58.80
72685;BME280;61365;52.162;4.500;2023-04-23T07:58:06;100443.41;;;18.18;58.59
72685;BME280;61365;52.162;4.500;2023-04-23T08:00:32;100437.88;;;18.00;59.16
72685;BME280;61365;52.162;4.500;2023-04-23T08:02:58;100444.59;;;17.85;60.91
72685;BME280;61365;52.162;4.500;2023-04-23T08:05:24;100442.28;;;18.24;59.24
72685;BME280;61365;52.162;4.500;2023-04-23T08:07:51;100452.75;;;18.28;58.17
72685;BME280;61365;52.162;4.500;2023-04-23T08:10:17;100443.09;;;18.48;57.91
72685;BME280;61365;52.162;4.500;2023-04-23T08:12:43;100439.97;;;17.67;60.91
72685;BME280;61365;52.162;4.500;2023-04-23T08:15:10;100445.31;;;17.91;60.32
72685;BME280;61365;52.162;4.500;2023-04-23T08:17:36;100434.16;;;18.05;60.28
72685;BME280;61365;52.162;4.500;2023-04-23T08:20:03;100431.16;;;17.41;61.22
72685;BME280;61365;52.162;4.500;2023-04-23T08:22:32;100428.63;;;16.87;63.58
72685;BME280;61365;52.162;4.500;2023-04-23T08:24:59;100435.34;;;16.98;62.16
72685;BME280;61365;52.162;4.500;2023-04-23T08:27:25;100426.47;;;17.73;60.93
72685;BME280;61365;52.162;4.500;2023-04-23T08:29:51;100441.47;;;17.00;63.40
72685;BME280;61365;52.162;4.500;2023-04-23T08:32:17;100436.06;;;17.77;60.30
72685;BME280;61365;52.162;4.500;2023-04-23T08:34:43;100429.94;;;18.23;59.54
72685;BME280;61365;52.162;4.500;2023-04-23T08:37:09;100429.06;;;18.67;59.56
72685;BME280;61365;52.162;4.500;2023-04-23T08:39:36;100428.50;;;18.58;58.40
72685;BME280;61365;52.162;4.500;2023-04-23T08:42:17;100441.66;;;18.17;61.31
72685;BME280;61365;52.162;4.500;2023-04-23T08:44:51;100440.38;;;17.56;61.59
72685;BME280;61365;52.162;4.500;2023-04-23T08:47:19;100431.72;;;18.22;61.59
72685;BME280;61365;52.162;4.500;2023-04-23T08:49:50;100431.13;;;18.60;61.01
72685;BME280;61365;52.162;4.500;2023-04-23T08:52:21;100433.66;;;19.27;58.10
72685;BME280;61365;52.162;4.500;2023-04-23T08:54:49;100436.50;;;19.22;58.72
72685;BME280;61365;52.162;4.500;2023-04-23T08:57:18;100435.97;;;19.34;58.01
72685;BME280;61365;52.162;4.500;2023-04-23T08:59:45;100437.06;;;19.10;56.72
72685;BME280;61365;52.162;4.500;2023-04-23T09:02:12;100424.69;;;18.86;58.67
72685;BME280;61365;52.162;4.500;2023-04-23T09:04:40;100430.41;;;19.41;57.60
72685;BME280;61365;52.162;4.500;2023-04-23T09:07:06;100424.63;;;18.23;59.93
72685;BME280;61365;52.162;4.500;2023-04-23T09:09:36;100423.25;;;18.35;61.08
72685;BME280;61365;52.162;4.500;2023-04-23T09:12:07;100427.03;;;18.94;58.81
72685;BME280;61365;52.162;4.500;2023-04-23T09:14:34;100428.16;;;19.11;60.81
72685;BME280;61365;52.162;4.500;2023-04-23T09:17:01;100426.06;;;18.74;57.50
72685;BME280;61365;52.162;4.500;2023-04-23T09:19:27;100418.69;;;18.60;59.04
72685;BME280;61365;52.162;4.500;2023-04-23T09:21:53;100424.03;;;18.38;61.72
72685;BME280;61365;52.162;4.500;2023-04-23T09:24:23;100416.28;;;18.32;59.23
72685;BME280;61365;52.162;4.500;2023-04-23T09:26:50;100409.19;;;19.18;58.31
72685;BME280;61365;52.162;4.500;2023-04-23T09:29:18;100403.97;;;19.36;56.49
72685;BME280;61365;52.162;4.500;2023-04-23T09:31:46;100414.38;;;18.58;58.28
72685;BME280;61365;52.162;4.500;2023-04-23T09:34:15;100410.03;;;18.98;59.46
72685;BME280;61365;52.162;4.500;2023-04-23T09:36:44;100409.25;;;18.96;58.42
72685;BME280;61365;52.162;4.500;2023-04-23T09:39:12;100406.28;;;18.82;57.78
72685;BME280;61365;52.162;4.500;2023-04-23T09:41:39;100399.25;;;19.22;56.59
72685;BME280;61365;52.162;4.500;2023-04-23T09:44:06;100412.22;;;19.30;57.31
72685;BME280;61365;52.162;4.500;2023-04-23T09:46:40;100408.25;;;19.19;57.08
72685;BME280;61365;52.162;4.500;2023-04-23T09:49:08;100406.63;;;19.76;54.85
72685;BME280;61365;52.162;4.500;2023-04-23T09:51:36;100402.41;;;19.51;56.31
72685;BME280;61365;52.162;4.500;2023-04-23T09:54:03;100402.75;;;19.03;56.27
72685;BME280;61365;52.162;4.500;2023-04-23T09:56:35;100401.06;;;19.22;57.43
72685;BME280;61365;52.162;4.500;2023-04-23T09:59:01;100404.44;;;19.25;58.05
72685;BME280;61365;52.162;4.500;2023-04-23T10:01:28;100388.13;;;19.33;58.98
72685;BME280;61365;52.162;4.500;2023-04-23T10:03:55;100392.03;;;19.26;56.45
72685;BME280;61365;52.162;4.500;2023-04-23T10:06:28;100388.72;;;19.20;57.88
72685;BME280;61365;52.162;4.500;2023-04-23T10:08:56;100384.38;;;19.18;57.92
72685;BME280;61365;52.162;4.500;2023-04-23T10:11:23;100393.31;;;18.53;57.35
72685;BME280;61365;52.162;4.500;2023-04-23T10:13:50;100391.56;;;18.52;59.64
72685;BME280;61365;52.162;4.500;2023-04-23T10:16:18;100383.28;;;19.03;57.28
72685;BME280;61365;52.162;4.500;2023-04-23T10:18:47;100385.34;;;18.74;56.28
72685;BME280;61365;52.162;4.500;2023-04-23T10:21:15;100382.16;;;18.43;60.53
72685;BME280;61365;52.162;4.500;2023-04-23T10:23:43;100386.06;;;18.57;58.64
72685;BME280;61365;52.162;4.500;2023-04-23T10:26:14;100377.34;;;18.96;58.22
72685;BME280;61365;52.162;4.500;2023-04-23T10:28:46;100377.13;;;18.15;59.74
72685;BME280;61365;52.162;4.500;2023-04-23T10:31:13;100377.63;;;18.25;58.93
72685;BME280;61365;52.162;4.500;2023-04-23T10:33:40;100368.88;;;18.00;56.79
72685;BME280;61365;52.162;4.500;2023-04-23T10:36:08;100373.69;;;18.56;58.91
72685;BME280;61365;52.162;4.500;2023-04-23T10:38:35;100360.72;;;18.27;57.88
72685;BME280;61365;52.162;4.500;2023-04-23T10:41:02;100365.06;;;18.71;57.99
72685;BME280;61365;52.162;4.500;2023-04-23T10:43:29;100364.81;;;18.35;58.17
72685;BME280;61365;52.162;4.500;2023-04-23T10:45:55;100354.66;;;18.67;60.05
72685;BME280;61365;52.162;4.500;2023-04-23T10:48:22;100347.38;;;18.50;56.38
72685;BME280;61365;52.162;4.500;2023-04-23T10:50:48;100343.81;;;18.71;56.91
72685;BME280;61365;52.162;4.500;2023-04-23T10:53:23;100342.72;;;18.77;53.62
72685;BME280;61365;52.162;4.500;2023-04-23T10:55:50;100345.16;;;18.61;55.84
72685;BME280;61365;52.162;4.500;2023-04-23T10:58:46;100340.09;;;18.75;55.63
72685;BME280;61365;52.162;4.500;2023-04-23T11:01:15;100329.44;;;18.98;54.46
72685;BME280;61365;52.162;4.500;2023-04-23T11:03:42;100333.91;;;18.54;55.99
72685;BME280;61365;52.162;4.500;2023-04-23T11:06:12;100336.00;;;18.25;54.86
72685;BME280;61365;52.162;4.500;2023-04-23T11:08:51;100324.69;;;18.20;57.22
72685;BME280;61365;52.162;4.500;2023-04-23T11:11:18;100320.72;;;18.30;54.84
72685;BME280;61365;52.162;4.500;2023-04-23T11:14:09;100317.00;;;18.35;55.04
72685;BME280;61365;52.162;4.500;2023-04-23T11:16:38;100322.41;;;18.33;57.19
72685;BME280;61365;52.162;4.500;2023-04-23T11:19:08;100319.03;;;18.91;54.83
72685;BME280;61365;52.162;4.500;2023-04-23T11:24:29;100311.69;;;18.35;56.77
72685;BME280;61365;52.162;4.500;2023-04-23T11:26:56;100297.56;;;18.34;54.12
72685;BME280;61365;52.162;4.500;2023-04-23T11:29:23;100292.84;;;18.82;54.54
72685;BME280;61365;52.162;4.500;2023-04-23T11:31:52;100292.25;;;18.55;53.16
72685;BME280;61365;52.162;4.500;2023-04-23T11:34:19;100290.47;;;18.76;55.53
72685;BME280;61365;52.162;4.500;2023-04-23T11:36:47;100281.91;;;18.06;55.30
72685;BME280;61365;52.162;4.500;2023-04-23T11:39:16;100285.69;;;18.64;57.85
72685;BME280;61365;52.162;4.500;2023-04-23T11:41:44;100275.78;;;18.46;55.25
72685;BME280;61365;52.162;4.500;2023-04-23T11:44:15;100279.66;;;18.60;54.47
72685;BME280;61365;52.162;4.500;2023-04-23T11:46:41;100278.84;;;18.37;60.43
72685;BME280;61365;52.162;4.500;2023-04-23T11:49:08;100275.66;;;18.29;56.58
72685;BME280;61365;52.162;4.500;2023-04-23T11:51:41;100264.56;;;18.19;54.49
72685;BME280;61365;52.162;4.500;2023-04-23T11:54:09;100260.22;;;18.79;52.86
72685;BME280;61365;52.162;4.500;2023-04-23T11:56:36;100261.91;;;19.02;57.21
72685;BME280;61365;52.162;4.500;2023-04-23T11:59:03;100262.88;;;18.99;53.52
72685;BME280;61365;52.162;4.500;2023-04-23T12:01:43;100245.84;;;19.03;55.78
72685;BME280;61365;52.162;4.500;2023-04-23T12:07:08;100240.81;;;18.97;52.55
72685;BME280;61365;52.162;4.500;2023-04-23T12:09:34;100244.34;;;19.17;51.27
72685;BME280;61365;52.162;4.500;2023-04-23T12:12:01;100236.47;;;18.95;53.62
72685;BME280;61365;52.162;4.500;2023-04-23T12:14:28;100234.34;;;18.82;53.00
72685;BME280;61365;52.162;4.500;2023-04-23T12:16:55;100236.69;;;18.90;53.35
72685;BME280;61365;52.162;4.500;2023-04-23T12:19:26;100232.34;;;18.27;54.84
72685;BME280;61365;52.162;4.500;2023-04-23T12:21:54;100226.56;;;18.17;53.81
72685;BME280;61365;52.162;4.500;2023-04-23T12:24:26;100233.50;;;18.82;52.43
72685;BME280;61365;52.162;4.500;2023-04-23T12:26:54;100222.88;;;18.82;54.04
72685;BME280;61365;52.162;4.500;2023-04-23T12:29:23;100225.13;;;18.51;52.53
72685;BME280;61365;52.162;4.500;2023-04-23T12:31:50;100218.66;;;18.57;52.65
72685;BME280;61365;52.162;4.500;2023-04-23T12:34:17;100217.78;;;18.56;52.42
72685;BME280;61365;52.162;4.500;2023-04-23T12:36:51;100205.44;;;18.95;55.79
72685;BME280;61365;52.162;4.500;2023-04-23T12:41:53;100198.88;;;18.43;53.68
72685;BME280;61365;52.162;4.500;2023-04-23T12:44:24;100196.69;;;18.53;55.57
72685;BME280;61365;52.162;4.500;2023-04-23T12:46:57;100190.19;;;18.40;52.86
72685;BME280;61365;52.162;4.500;2023-04-23T12:49:25;100192.13;;;18.36;54.70
72685;BME280;61365;52.162;4.500;2023-04-23T12:51:54;100188.91;;;18.49;54.73
72685;BME280;61365;52.162;4.500;2023-04-23T12:54:30;100201.25;;;18.50;59.43
72685;BME280;61365;52.162;4.500;2023-04-23T12:57:04;100197.88;;;18.86;52.81
72685;BME280;61365;52.162;4.500;2023-04-23T12:59:32;100198.66;;;19.09;50.91
72685;BME280;61365;52.162;4.500;2023-04-23T13:01:59;100203.16;;;18.67;51.59
72685;BME280;61365;52.162;4.500;2023-04-23T13:04:29;100218.25;;;17.82;55.98